sensor_id;sensor_type;location;lat;lon;timestamp;temperature;humidity
15844;DHT22;50807;52.436;13.346;2022-11-20T00:00:03;4.90;90.20
15844;DHT22;50807;52.436;13.346;2022-11-20T00:00:34;4.90;90.20
15844;DHT22;50807;52.436;13.346;2022-11-20T00:01:06;4.80;90.40
15844;DHT22;50807;52.436;13.346;2022-11-20T00:01:39;4.80;90.20
15844;DHT22;50807;52.436;13.346;2022-11-20T00:02:10;4.80;90.10
15844;DHT22;50807;52.436;13.346;2022-11-20T00:02:41;4.80;90.20
15844;DHT22;50807;52.436;13.346;2022-11-20T00:03:13;4.80;90.20
15844;DHT22;50807;52.436;13.346;2022-11-20T00:03:44;4.80;90.10
15844;DHT22;50807;52.436;13.346;2022-11-20T00:04:15;4.80;90.20
15844;DHT22;50807;52.436;13.346;2022-11-20T00:04:47;4.80;90.50
15844;DHT22;50807;52.436;13.346;2022-11-20T00:05:18;4.80;90.20
15844;DHT22;50807;52.436;13.346;2022-11-20T00:05:49;4.80;90.20
15844;DHT22;50807;52.436;13.346;2022-11-20T00:06:20;4.80;90.20
15844;DHT22;50807;52.436;13.346;2022-11-20T00:06:52;4.80;90.20
15844;DHT22;50807;52.436;13.346;2022-11-20T00:07:23;4.80;90.10
15844;DHT22;50807;52.436;13.346;2022-11-20T00:07:54;4.80;90.10
15844;DHT22;50807;52.436;13.346;2022-11-20T00:08:26;4.80;90.10
15844;DHT22;50807;52.436;13.346;2022-11-20T00:08:58;4.80;90.10
15844;DHT22;50807;52.436;13.346;2022-11-20T00:09:31;4.80;90.10
15844;DHT22;50807;52.436;13.346;2022-11-20T00:10:02;4.80;90.10
15844;DHT22;50807;52.436;13.346;2022-11-20T00:10:36;4.80;90.10
15844;DHT22;50807;52.436;13.346;2022-11-20T00:11:10;4.80;90.10
15844;DHT22;50807;52.436;13.346;2022-11-20T00:11:43;4.80;90.10
15844;DHT22;50807;52.436;13.346;2022-11-20T00:12:15;4.80;90.10
15844;DHT22;50807;52.436;13.346;2022-11-20T00:12:46;4.80;90.10
15844;DHT22;50807;52.436;13.346;2022-11-20T00:13:17;4.80;90.10
15844;DHT22;50807;52.436;13.346;2022-11-20T00:13:49;4.80;90.10
15844;DHT22;50807;52.436;13.346;2022-11-20T00:14:22;4.80;90.10
15844;DHT22;50807;52.436;13.346;2022-11-20T00:14:53;4.80;90.10
15844;DHT22;50807;52.436;13.346;2022-11-20T00:15:24;4.80;90.10
15844;DHT22;50807;52.436;13.346;2022-11-20T00:16:00;4.70;90.10
15844;DHT22;50807;52.436;13.346;2022-11-20T00:16:32;4.80;90.50
15844;DHT22;50807;52.436;13.346;2022-11-20T00:17:03;4.80;90.20
15844;DHT22;50807;52.436;13.346;2022-11-20T00:17:34;4.80;90.20
15844;DHT22;50807;52.436;13.346;2022-11-20T00:18:06;4.80;90.20
15844;DHT22;50807;52.436;13.346;2022-11-20T00:18:37;4.80;90.20
15844;DHT22;50807;52.436;13.346;2022-11-20T00:19:08;4.80;90.20
15844;DHT22;50807;52.436;13.346;2022-11-20T00:19:40;4.70;90.20
15844;DHT22;50807;52.436;13.346;2022-11-20T00:20:12;4.80;90.20
15844;DHT22;50807;52.436;13.346;2022-11-20T00:20:43;4.80;90.20
15844;DHT22;50807;52.436;13.346;2022-11-20T00:21:16;4.80;90.20
15844;DHT22;50807;52.436;13.346;2022-11-20T00:21:48;4.80;90.20
15844;DHT22;50807;52.436;13.346;2022-11-20T00:22:21;4.80;90.20
15844;DHT22;50807;52.436;13.346;2022-11-20T00:22:53;4.80;90.20
15844;DHT22;50807;52.436;13.346;2022-11-20T00:23:24;4.80;90.20
15844;DHT22;50807;52.436;13.346;2022-11-20T00:23:56;4.80;90.20
15844;DHT22;50807;52.436;13.346;2022-11-20T00:24:28;4.80;90.20
15844;DHT22;50807;52.436;13.346;2022-11-20T00:24:59;4.80;90.20
15844;DHT22;50807;52.436;13.346;2022-11-20T00:25:29;4.80;90.20
15844;DHT22;50807;52.436;13.346;2022-11-20T00:26:04;4.80;90.10
15844;DHT22;50807;52.436;13.346;2022-11-20T00:26:36;4.80;90.20
15844;DHT22;50807;52.436;13.346;2022-11-20T00:27:09;4.80;90.10
15844;DHT22;50807;52.436;13.346;2022-11-20T00:27:39;4.80;90.10
15844;DHT22;50807;52.436;13.346;2022-11-20T00:28:11;4.80;90.10
15844;DHT22;50807;52.436;13.346;2022-11-20T00:28:43;4.80;90.10
15844;DHT22;50807;52.436;13.346;2022-11-20T00:29:15;4.80;90.10
15844;DHT22;50807;52.436;13.346;2022-11-20T00:29:46;4.80;90.10
15844;DHT22;50807;52.436;13.346;2022-11-20T00:30:17;4.80;90.10
15844;DHT22;50807;52.436;13.346;2022-11-20T00:30:48;4.80;90.10
15844;DHT22;50807;52.436;13.346;2022-11-20T00:31:20;4.70;90.00
15844;DHT22;50807;52.436;13.346;2022-11-20T00:31:51;4.70;90.00
15844;DHT22;50807;52.436;13.346;2022-11-20T00:32:22;4.70;90.00
15844;DHT22;50807;52.436;13.346;2022-11-20T00:32:56;4.70;90.00
15844;DHT22;50807;52.436;13.346;2022-11-20T00:33:27;4.70;90.10
15844;DHT22;50807;52.436;13.346;2022-11-20T00:33:58;4.70;90.10
15844;DHT22;50807;52.436;13.346;2022-11-20T00:34:30;4.70;90.10
15844;DHT22;50807;52.436;13.346;2022-11-20T00:35:00;4.70;90.10
15844;DHT22;50807;52.436;13.346;2022-11-20T00:35:31;4.70;90.10
15844;DHT22;50807;52.436;13.346;2022-11-20T00:36:04;4.70;90.10
15844;DHT22;50807;52.436;13.346;2022-11-20T00:36:37;4.70;90.20
15844;DHT22;50807;52.436;13.346;2022-11-20T00:37:08;4.70;90.40
15844;DHT22;50807;52.436;13.346;2022-11-20T00:37:39;4.70;90.10
15844;DHT22;50807;52.436;13.346;2022-11-20T00:38:10;4.70;90.10
15844;DHT22;50807;52.436;13.346;2022-11-20T00:38:41;4.70;90.10
15844;DHT22;50807;52.436;13.346;2022-11-20T00:39:13;4.70;90.20
15844;DHT22;50807;52.436;13.346;2022-11-20T00:39:44;4.70;90.20
15844;DHT22;50807;52.436;13.346;2022-11-20T00:40:15;4.70;90.20
15844;DHT22;50807;52.436;13.346;2022-11-20T00:40:46;4.70;90.20
15844;DHT22;50807;52.436;13.346;2022-11-20T00:41:26;4.70;90.20
15844;DHT22;50807;52.436;13.346;2022-11-20T00:41:58;4.70;90.20
15844;DHT22;50807;52.436;13.346;2022-11-20T00:42:31;4.70;90.20
15844;DHT22;50807;52.436;13.346;2022-11-20T00:43:03;4.70;90.20
15844;DHT22;50807;52.436;13.346;2022-11-20T00:43:34;4.70;90.20
15844;DHT22;50807;52.436;13.346;2022-11-20T00:44:06;4.70;90.30
15844;DHT22;50807;52.436;13.346;2022-11-20T00:44:37;4.70;90.20
15844;DHT22;50807;52.436;13.346;2022-11-20T00:45:08;4.70;90.20
15844;DHT22;50807;52.436;13.346;2022-11-20T00:45:40;4.70;90.20
15844;DHT22;50807;52.436;13.346;2022-11-20T00:46:13;4.70;90.20
15844;DHT22;50807;52.436;13.346;2022-11-20T00:46:45;4.80;90.30
15844;DHT22;50807;52.436;13.346;2022-11-20T00:47:17;4.80;90.30
15844;DHT22;50807;52.436;13.346;2022-11-20T00:47:48;4.80;90.20
15844;DHT22;50807;52.436;13.346;2022-11-20T00:48:18;4.70;90.20
15844;DHT22;50807;52.436;13.346;2022-11-20T00:48:50;4.80;90.20
15844;DHT22;50807;52.436;13.346;2022-11-20T00:49:21;4.80;90.20
15844;DHT22;50807;52.436;13.346;2022-11-20T00:49:51;4.70;90.20
15844;DHT22;50807;52.436;13.346;2022-11-20T00:50:23;4.80;90.20
15844;DHT22;50807;52.436;13.346;2022-11-20T00:50:54;4.70;90.20
15844;DHT22;50807;52.436;13.346;2022-11-20T00:51:27;4.70;90.20
15844;DHT22;50807;52.436;13.346;2022-11-20T00:51:59;4.80;90.20
15844;DHT22;50807;52.436;13.346;2022-11-20T00:52:29;4.80;90.20
15844;DHT22;50807;52.436;13.346;2022-11-20T00:53:00;4.80;90.20
15844;DHT22;50807;52.436;13.346;2022-11-20T00:53:32;4.80;90.20
15844;DHT22;50807;52.436;13.346;2022-11-20T00:54:03;4.80;90.20
15844;DHT22;50807;52.436;13.346;2022-11-20T00:54:34;4.80;90.20
15844;DHT22;50807;52.436;13.346;2022-11-20T00:55:06;4.80;90.20
15844;DHT22;50807;52.436;13.346;2022-11-20T00:55:37;4.80;90.20
15844;DHT22;50807;52.436;13.346;2022-11-20T00:56:10;4.80;90.20
15844;DHT22;50807;52.436;13.346;2022-11-20T00:56:42;4.80;90.20
15844;DHT22;50807;52.436;13.346;2022-11-20T00:57:14;4.80;90.20
15844;DHT22;50807;52.436;13.346;2022-11-20T00:57:46;4.80;90.20
15844;DHT22;50807;52.436;13.346;2022-11-20T00:58:17;4.80;90.20
15844;DHT22;50807;52.436;13.346;2022-11-20T00:58:48;4.80;90.20
15844;DHT22;50807;52.436;13.346;2022-11-20T00:59:20;4.80;90.20
15844;DHT22;50807;52.436;13.346;2022-11-20T00:59:51;4.80;90.20
15844;DHT22;50807;52.436;13.346;2022-11-20T01:00:22;4.80;90.20
15844;DHT22;50807;52.436;13.346;2022-11-20T01:00:53;4.80;90.20
15844;DHT22;50807;52.436;13.346;2022-11-20T01:01:26;4.80;90.20
15844;DHT22;50807;52.436;13.346;2022-11-20T01:01:59;4.80;90.20
15844;DHT22;50807;52.436;13.346;2022-11-20T01:02:31;4.80;90.20
15844;DHT22;50807;52.436;13.346;2022-11-20T01:03:01;4.80;90.20
15844;DHT22;50807;52.436;13.346;2022-11-20T01:03:32;4.70;90.10
15844;DHT22;50807;52.436;13.346;2022-11-20T01:04:05;4.70;90.10
15844;DHT22;50807;52.436;13.346;2022-11-20T01:04:36;4.70;90.10
15844;DHT22;50807;52.436;13.346;2022-11-20T01:05:07;4.80;90.20
15844;DHT22;50807;52.436;13.346;2022-11-20T01:05:38;4.80;90.20
15844;DHT22;50807;52.436;13.346;2022-11-20T01:06:12;4.70;90.10
15844;DHT22;50807;52.436;13.346;2022-11-20T01:06:44;4.70;90.10
15844;DHT22;50807;52.436;13.346;2022-11-20T01:07:16;4.70;90.10
15844;DHT22;50807;52.436;13.346;2022-11-20T01:07:47;4.70;90.10
15844;DHT22;50807;52.436;13.346;2022-11-20T01:08:18;4.70;90.10
15844;DHT22;50807;52.436;13.346;2022-11-20T01:08:50;4.70;90.10
15844;DHT22;50807;52.436;13.346;2022-11-20T01:09:23;4.70;90.10
15844;DHT22;50807;52.436;13.346;2022-11-20T01:09:55;4.70;90.10
15844;DHT22;50807;52.436;13.346;2022-11-20T01:10:26;4.70;90.10
15844;DHT22;50807;52.436;13.346;2022-11-20T01:10:59;4.70;90.10
15844;DHT22;50807;52.436;13.346;2022-11-20T01:11:34;4.70;90.10
15844;DHT22;50807;52.436;13.346;2022-11-20T01:12:07;4.70;90.10
15844;DHT22;50807;52.436;13.346;2022-11-20T01:12:37;4.70;90.10
15844;DHT22;50807;52.436;13.346;2022-11-20T01:13:10;4.70;90.10
15844;DHT22;50807;52.436;13.346;2022-11-20T01:14:01;4.70;90.10
15844;DHT22;50807;52.436;13.346;2022-11-20T01:14:33;4.70;90.10
15844;DHT22;50807;52.436;13.346;2022-11-20T01:15:06;4.70;90.10
15844;DHT22;50807;52.436;13.346;2022-11-20T01:15:38;4.70;90.00
15844;DHT22;50807;52.436;13.346;2022-11-20T01:16:11;4.70;90.00
15844;DHT22;50807;52.436;13.346;2022-11-20T01:16:45;4.70;90.00
15844;DHT22;50807;52.436;13.346;2022-11-20T01:17:18;4.70;90.00
15844;DHT22;50807;52.436;13.346;2022-11-20T01:17:49;4.70;90.00
15844;DHT22;50807;52.436;13.346;2022-11-20T01:18:20;4.70;90.00
15844;DHT22;50807;52.436;13.346;2022-11-20T01:18:53;4.70;90.00
15844;DHT22;50807;52.436;13.346;2022-11-20T01:19:26;4.70;90.00
15844;DHT22;50807;52.436;13.346;2022-11-20T01:19:57;4.70;90.00
15844;DHT22;50807;52.436;13.346;2022-11-20T01:20:28;4.70;90.00
15844;DHT22;50807;52.436;13.346;2022-11-20T01:21:04;4.70;90.00
15844;DHT22;50807;52.436;13.346;2022-11-20T01:21:39;4.70;90.10
15844;DHT22;50807;52.436;13.346;2022-11-20T01:22:10;4.70;90.10
15844;DHT22;50807;52.436;13.346;2022-11-20T01:22:42;4.70;90.10
15844;DHT22;50807;52.436;13.346;2022-11-20T01:23:13;4.60;90.10
15844;DHT22;50807;52.436;13.346;2022-11-20T01:23:44;4.60;90.10
15844;DHT22;50807;52.436;13.346;2022-11-20T01:24:18;4.60;90.10
15844;DHT22;50807;52.436;13.346;2022-11-20T01:24:51;4.60;90.10
15844;DHT22;50807;52.436;13.346;2022-11-20T01:25:22;4.60;90.10
15844;DHT22;50807;52.436;13.346;2022-11-20T01:25:53;4.60;90.10
15844;DHT22;50807;52.436;13.346;2022-11-20T01:26:25;4.70;90.10
15844;DHT22;50807;52.436;13.346;2022-11-20T01:26:58;4.70;90.10
15844;DHT22;50807;52.436;13.346;2022-11-20T01:27:29;4.60;90.10
15844;DHT22;50807;52.436;13.346;2022-11-20T01:28:00;4.60;90.10
15844;DHT22;50807;52.436;13.346;2022-11-20T01:28:33;4.60;90.10
15844;DHT22;50807;52.436;13.346;2022-11-20T01:29:06;4.60;90.10
15844;DHT22;50807;52.436;13.346;2022-11-20T01:29:39;4.60;90.10
15844;DHT22;50807;52.436;13.346;2022-11-20T01:30:11;4.60;90.10
15844;DHT22;50807;52.436;13.346;2022-11-20T01:30:43;4.60;90.10
15844;DHT22;50807;52.436;13.346;2022-11-20T01:31:15;4.60;90.10
15844;DHT22;50807;52.436;13.346;2022-11-20T01:31:48;4.60;90.10
15844;DHT22;50807;52.436;13.346;2022-11-20T01:32:19;4.60;90.10
15844;DHT22;50807;52.436;13.346;2022-11-20T01:32:50;4.60;90.10
15844;DHT22;50807;52.436;13.346;2022-11-20T01:33:21;4.60;90.10
15844;DHT22;50807;52.436;13.346;2022-11-20T01:33:55;4.60;90.10
15844;DHT22;50807;52.436;13.346;2022-11-20T01:34:26;4.60;90.10
15844;DHT22;50807;52.436;13.346;2022-11-20T01:34:57;4.60;90.10
15844;DHT22;50807;52.436;13.346;2022-11-20T01:35:29;4.60;90.10
15844;DHT22;50807;52.436;13.346;2022-11-20T01:36:03;4.60;90.10
15844;DHT22;50807;52.436;13.346;2022-11-20T01:36:36;4.60;90.10
15844;DHT22;50807;52.436;13.346;2022-11-20T01:37:08;4.50;90.20
15844;DHT22;50807;52.436;13.346;2022-11-20T01:37:40;4.50;90.10
15844;DHT22;50807;52.436;13.346;2022-11-20T01:38:11;4.50;90.10
15844;DHT22;50807;52.436;13.346;2022-11-20T01:38:42;4.50;90.10
15844;DHT22;50807;52.436;13.346;2022-11-20T01:39:15;4.50;90.10
15844;DHT22;50807;52.436;13.346;2022-11-20T01:39:48;4.50;90.10
15844;DHT22;50807;52.436;13.346;2022-11-20T01:40:19;4.50;90.10
15844;DHT22;50807;52.436;13.346;2022-11-20T01:40:55;4.50;90.10
15844;DHT22;50807;52.436;13.346;2022-11-20T01:41:28;4.50;90.20
15844;DHT22;50807;52.436;13.346;2022-11-20T01:42:19;4.50;90.20
15844;DHT22;50807;52.436;13.346;2022-11-20T01:43:13;4.50;90.20
15844;DHT22;50807;52.436;13.346;2022-11-20T01:43:56;4.50;90.20
15844;DHT22;50807;52.436;13.346;2022-11-20T01:44:50;4.50;90.20
15844;DHT22;50807;52.436;13.346;2022-11-20T01:45:56;4.60;90.20
15844;DHT22;50807;52.436;13.346;2022-11-20T01:46:32;4.50;90.20
15844;DHT22;50807;52.436;13.346;2022-11-20T01:47:05;4.60;90.20
15844;DHT22;50807;52.436;13.346;2022-11-20T01:47:41;4.60;90.10
15844;DHT22;50807;52.436;13.346;2022-11-20T01:48:15;4.60;90.10
15844;DHT22;50807;52.436;13.346;2022-11-20T01:48:51;4.60;90.00
15844;DHT22;50807;52.436;13.346;2022-11-20T01:49:33;4.60;90.10
15844;DHT22;50807;52.436;13.346;2022-11-20T01:50:13;4.50;90.00
15844;DHT22;50807;52.436;13.346;2022-11-20T01:50:48;4.60;90.10
15844;DHT22;50807;52.436;13.346;2022-11-20T01:51:24;4.50;90.10
15844;DHT22;50807;52.436;13.346;2022-11-20T01:52:02;4.50;90.10
15844;DHT22;50807;52.436;13.346;2022-11-20T01:52:39;4.50;90.10
15844;DHT22;50807;52.436;13.346;2022-11-20T01:53:16;4.50;90.10
15844;DHT22;50807;52.436;13.346;2022-11-20T01:53:52;4.50;90.10
15844;DHT22;50807;52.436;13.346;2022-11-20T01:54:30;4.50;90.10
15844;DHT22;50807;52.436;13.346;2022-11-20T01:55:07;4.50;90.10
15844;DHT22;50807;52.436;13.346;2022-11-20T01:55:43;4.50;90.10
15844;DHT22;50807;52.436;13.346;2022-11-20T01:56:19;4.50;90.10
15844;DHT22;50807;52.436;13.346;2022-11-20T01:56:54;4.50;90.10
15844;DHT22;50807;52.436;13.346;2022-11-20T01:57:29;4.50;90.10
15844;DHT22;50807;52.436;13.346;2022-11-20T01:58:04;4.50;90.10
15844;DHT22;50807;52.436;13.346;2022-11-20T01:58:39;4.50;90.10
15844;DHT22;50807;52.436;13.346;2022-11-20T01:59:16;4.50;90.10
15844;DHT22;50807;52.436;13.346;2022-11-20T01:59:53;4.50;90.20
15844;DHT22;50807;52.436;13.346;2022-11-20T02:00:27;4.50;90.20
15844;DHT22;50807;52.436;13.346;2022-11-20T02:00:59;4.50;90.20
15844;DHT22;50807;52.436;13.346;2022-11-20T02:01:31;4.50;90.20
15844;DHT22;50807;52.436;13.346;2022-11-20T02:02:02;4.50;90.20
15844;DHT22;50807;52.436;13.346;2022-11-20T02:02:33;4.50;90.20
15844;DHT22;50807;52.436;13.346;2022-11-20T02:03:07;4.50;90.30
15844;DHT22;50807;52.436;13.346;2022-11-20T02:03:41;4.50;90.30
15844;DHT22;50807;52.436;13.346;2022-11-20T02:04:15;4.50;90.30
15844;DHT22;50807;52.436;13.346;2022-11-20T02:04:47;4.50;90.30
15844;DHT22;50807;52.436;13.346;2022-11-20T02:05:24;4.50;90.40
15844;DHT22;50807;52.436;13.346;2022-11-20T02:06:05;4.50;90.40
15844;DHT22;50807;52.436;13.346;2022-11-20T02:06:44;4.50;90.40
15844;DHT22;50807;52.436;13.346;2022-11-20T02:07:20;4.50;90.40
15844;DHT22;50807;52.436;13.346;2022-11-20T02:07:52;4.50;90.40
15844;DHT22;50807;52.436;13.346;2022-11-20T02:08:26;4.60;90.40
15844;DHT22;50807;52.436;13.346;2022-11-20T02:08:59;4.50;90.40
15844;DHT22;50807;52.436;13.346;2022-11-20T02:09:30;4.50;90.30
15844;DHT22;50807;52.436;13.346;2022-11-20T02:10:03;4.60;90.40
15844;DHT22;50807;52.436;13.346;2022-11-20T02:10:34;4.50;90.40
15844;DHT22;50807;52.436;13.346;2022-11-20T02:11:05;4.50;90.40
15844;DHT22;50807;52.436;13.346;2022-11-20T02:11:38;4.50;90.30
15844;DHT22;50807;52.436;13.346;2022-11-20T02:12:08;4.50;90.30
15844;DHT22;50807;52.436;13.346;2022-11-20T02:13:00;4.50;90.30
15844;DHT22;50807;52.436;13.346;2022-11-20T02:13:49;4.60;90.40
15844;DHT22;50807;52.436;13.346;2022-11-20T02:14:23;4.60;90.40
15844;DHT22;50807;52.436;13.346;2022-11-20T02:14:55;4.60;90.30
15844;DHT22;50807;52.436;13.346;2022-11-20T02:15:27;4.60;90.30
15844;DHT22;50807;52.436;13.346;2022-11-20T02:15:57;4.60;90.20
15844;DHT22;50807;52.436;13.346;2022-11-20T02:16:32;4.60;90.20
15844;DHT22;50807;52.436;13.346;2022-11-20T02:17:06;4.50;90.20
15844;DHT22;50807;52.436;13.346;2022-11-20T02:17:38;4.50;90.20
15844;DHT22;50807;52.436;13.346;2022-11-20T02:18:10;4.50;90.20
15844;DHT22;50807;52.436;13.346;2022-11-20T02:18:44;4.60;90.20
15844;DHT22;50807;52.436;13.346;2022-11-20T02:19:22;4.50;90.20
15844;DHT22;50807;52.436;13.346;2022-11-20T02:19:56;4.50;90.20
15844;DHT22;50807;52.436;13.346;2022-11-20T02:20:28;4.50;90.10
15844;DHT22;50807;52.436;13.346;2022-11-20T02:21:05;4.50;90.10
15844;DHT22;50807;52.436;13.346;2022-11-20T02:21:43;4.50;90.10
15844;DHT22;50807;52.436;13.346;2022-11-20T02:22:22;4.50;90.10
15844;DHT22;50807;52.436;13.346;2022-11-20T02:23:04;4.50;90.10
15844;DHT22;50807;52.436;13.346;2022-11-20T02:24:03;4.50;90.10
15844;DHT22;50807;52.436;13.346;2022-11-20T02:24:36;4.50;90.10
15844;DHT22;50807;52.436;13.346;2022-11-20T02:25:09;4.50;90.10
15844;DHT22;50807;52.436;13.346;2022-11-20T02:25:42;4.50;90.10
15844;DHT22;50807;52.436;13.346;2022-11-20T02:26:14;4.50;90.00
15844;DHT22;50807;52.436;13.346;2022-11-20T02:26:50;4.50;90.10
15844;DHT22;50807;52.436;13.346;2022-11-20T02:27:24;4.50;90.10
15844;DHT22;50807;52.436;13.346;2022-11-20T02:27:56;4.40;90.00
15844;DHT22;50807;52.436;13.346;2022-11-20T02:28:27;4.40;90.00
15844;DHT22;50807;52.436;13.346;2022-11-20T02:28:59;4.40;90.00
15844;DHT22;50807;52.436;13.346;2022-11-20T02:29:36;4.40;90.10
15844;DHT22;50807;52.436;13.346;2022-11-20T02:30:11;4.40;90.10
15844;DHT22;50807;52.436;13.346;2022-11-20T02:30:43;4.40;90.10
15844;DHT22;50807;52.436;13.346;2022-11-20T02:31:13;4.40;90.10
15844;DHT22;50807;52.436;13.346;2022-11-20T02:31:45;4.40;90.10
15844;DHT22;50807;52.436;13.346;2022-11-20T02:32:20;4.40;90.10
15844;DHT22;50807;52.436;13.346;2022-11-20T02:33:24;4.40;90.10
15844;DHT22;50807;52.436;13.346;2022-11-20T02:33:56;4.40;90.10
15844;DHT22;50807;52.436;13.346;2022-11-20T02:34:27;4.30;90.10
15844;DHT22;50807;52.436;13.346;2022-11-20T02:35:06;4.30;90.10
15844;DHT22;50807;52.436;13.346;2022-11-20T02:35:42;4.30;90.10
15844;DHT22;50807;52.436;13.346;2022-11-20T02:36:15;4.30;90.10
15844;DHT22;50807;52.436;13.346;2022-11-20T02:36:46;4.30;90.10
15844;DHT22;50807;52.436;13.346;2022-11-20T02:37:21;4.30;90.10
15844;DHT22;50807;52.436;13.346;2022-11-20T02:37:54;4.30;90.10
15844;DHT22;50807;52.436;13.346;2022-11-20T02:38:26;4.30;90.20
15844;DHT22;50807;52.436;13.346;2022-11-20T02:38:59;4.30;90.10
15844;DHT22;50807;52.436;13.346;2022-11-20T02:39:30;4.30;90.20
15844;DHT22;50807;52.436;13.346;2022-11-20T02:40:01;4.30;90.20
15844;DHT22;50807;52.436;13.346;2022-11-20T02:40:33;4.30;90.20
15844;DHT22;50807;52.436;13.346;2022-11-20T02:41:03;4.30;90.20
15844;DHT22;50807;52.436;13.346;2022-11-20T02:41:35;4.30;90.20
15844;DHT22;50807;52.436;13.346;2022-11-20T02:42:08;4.20;90.20
15844;DHT22;50807;52.436;13.346;2022-11-20T02:42:39;4.20;90.20
15844;DHT22;50807;52.436;13.346;2022-11-20T02:43:10;4.30;90.20
15844;DHT22;50807;52.436;13.346;2022-11-20T02:43:42;4.20;90.20
15844;DHT22;50807;52.436;13.346;2022-11-20T02:44:12;4.30;90.20
15844;DHT22;50807;52.436;13.346;2022-11-20T02:44:43;4.30;90.20
15844;DHT22;50807;52.436;13.346;2022-11-20T02:45:15;4.20;90.20
15844;DHT22;50807;52.436;13.346;2022-11-20T02:45:45;4.20;90.20
15844;DHT22;50807;52.436;13.346;2022-11-20T02:46:16;4.20;90.20
15844;DHT22;50807;52.436;13.346;2022-11-20T02:46:48;4.20;90.20
15844;DHT22;50807;52.436;13.346;2022-11-20T02:47:19;4.20;90.20
15844;DHT22;50807;52.436;13.346;2022-11-20T02:47:49;4.20;90.30
15844;DHT22;50807;52.436;13.346;2022-11-20T02:48:21;4.20;90.30
15844;DHT22;50807;52.436;13.346;2022-11-20T02:48:52;4.20;90.30
15844;DHT22;50807;52.436;13.346;2022-11-20T02:49:23;4.20;90.30
15844;DHT22;50807;52.436;13.346;2022-11-20T02:49:55;4.20;90.30
15844;DHT22;50807;52.436;13.346;2022-11-20T02:50:26;4.20;90.30
15844;DHT22;50807;52.436;13.346;2022-11-20T02:50:57;4.20;90.30
15844;DHT22;50807;52.436;13.346;2022-11-20T02:51:28;4.20;90.30
15844;DHT22;50807;52.436;13.346;2022-11-20T02:52:00;4.20;90.30
15844;DHT22;50807;52.436;13.346;2022-11-20T02:52:31;4.20;90.30
15844;DHT22;50807;52.436;13.346;2022-11-20T02:53:02;4.20;90.30
15844;DHT22;50807;52.436;13.346;2022-11-20T02:53:32;4.20;90.30
15844;DHT22;50807;52.436;13.346;2022-11-20T02:54:05;4.20;90.30
15844;DHT22;50807;52.436;13.346;2022-11-20T02:54:36;4.20;90.30
15844;DHT22;50807;52.436;13.346;2022-11-20T02:55:07;4.20;90.30
15844;DHT22;50807;52.436;13.346;2022-11-20T02:55:38;4.20;90.30
15844;DHT22;50807;52.436;13.346;2022-11-20T02:56:10;4.10;90.30
15844;DHT22;50807;52.436;13.346;2022-11-20T02:56:41;4.10;90.20
15844;DHT22;50807;52.436;13.346;2022-11-20T02:57:12;4.10;90.20
15844;DHT22;50807;52.436;13.346;2022-11-20T02:57:43;4.10;90.20
15844;DHT22;50807;52.436;13.346;2022-11-20T02:58:14;4.10;90.20
15844;DHT22;50807;52.436;13.346;2022-11-20T02:58:45;4.10;90.20
15844;DHT22;50807;52.436;13.346;2022-11-20T02:59:16;4.10;90.20
15844;DHT22;50807;52.436;13.346;2022-11-20T02:59:47;4.10;90.30
15844;DHT22;50807;52.436;13.346;2022-11-20T03:00:18;4.10;90.20
15844;DHT22;50807;52.436;13.346;2022-11-20T03:00:49;4.10;90.30
15844;DHT22;50807;52.436;13.346;2022-11-20T03:01:21;4.10;90.30
15844;DHT22;50807;52.436;13.346;2022-11-20T03:01:52;4.10;90.30
15844;DHT22;50807;52.436;13.346;2022-11-20T03:02:22;4.10;90.30
15844;DHT22;50807;52.436;13.346;2022-11-20T03:02:54;4.10;90.30
15844;DHT22;50807;52.436;13.346;2022-11-20T03:03:25;4.10;90.30
15844;DHT22;50807;52.436;13.346;2022-11-20T03:03:56;4.00;90.30
15844;DHT22;50807;52.436;13.346;2022-11-20T03:04:27;4.00;90.30
15844;DHT22;50807;52.436;13.346;2022-11-20T03:04:58;4.00;90.30
15844;DHT22;50807;52.436;13.346;2022-11-20T03:05:29;4.00;90.30
15844;DHT22;50807;52.436;13.346;2022-11-20T03:06:01;4.00;90.30
15844;DHT22;50807;52.436;13.346;2022-11-20T03:06:32;4.00;90.30
15844;DHT22;50807;52.436;13.346;2022-11-20T03:07:03;4.00;90.30
15844;DHT22;50807;52.436;13.346;2022-11-20T03:07:35;4.10;90.40
15844;DHT22;50807;52.436;13.346;2022-11-20T03:08:05;4.00;90.40
15844;DHT22;50807;52.436;13.346;2022-11-20T03:08:36;4.00;90.70
15844;DHT22;50807;52.436;13.346;2022-11-20T03:09:09;4.00;90.40
15844;DHT22;50807;52.436;13.346;2022-11-20T03:09:40;4.00;90.40
15844;DHT22;50807;52.436;13.346;2022-11-20T03:10:11;4.00;90.40
15844;DHT22;50807;52.436;13.346;2022-11-20T03:10:41;4.00;90.40
15844;DHT22;50807;52.436;13.346;2022-11-20T03:11:13;4.00;90.40
15844;DHT22;50807;52.436;13.346;2022-11-20T03:11:44;4.00;90.40
15844;DHT22;50807;52.436;13.346;2022-11-20T03:12:15;4.00;90.40
15844;DHT22;50807;52.436;13.346;2022-11-20T03:12:47;4.00;90.40
15844;DHT22;50807;52.436;13.346;2022-11-20T03:13:18;4.00;90.50
15844;DHT22;50807;52.436;13.346;2022-11-20T03:13:49;4.00;90.50
15844;DHT22;50807;52.436;13.346;2022-11-20T03:14:20;4.10;90.50
15844;DHT22;50807;52.436;13.346;2022-11-20T03:14:51;4.00;90.50
15844;DHT22;50807;52.436;13.346;2022-11-20T03:15:22;4.00;90.40
15844;DHT22;50807;52.436;13.346;2022-11-20T03:15:54;4.00;90.50
15844;DHT22;50807;52.436;13.346;2022-11-20T03:16:25;4.00;90.40
15844;DHT22;50807;52.436;13.346;2022-11-20T03:16:56;4.00;90.50
15844;DHT22;50807;52.436;13.346;2022-11-20T03:17:28;4.00;90.50
15844;DHT22;50807;52.436;13.346;2022-11-20T03:17:59;4.00;90.80
15844;DHT22;50807;52.436;13.346;2022-11-20T03:18:30;4.00;90.40
15844;DHT22;50807;52.436;13.346;2022-11-20T03:19:02;4.00;90.40
15844;DHT22;50807;52.436;13.346;2022-11-20T03:19:33;4.10;90.50
15844;DHT22;50807;52.436;13.346;2022-11-20T03:20:05;4.00;90.40
15844;DHT22;50807;52.436;13.346;2022-11-20T03:20:37;4.00;90.40
15844;DHT22;50807;52.436;13.346;2022-11-20T03:21:10;4.00;90.40
15844;DHT22;50807;52.436;13.346;2022-11-20T03:21:42;4.10;90.50
15844;DHT22;50807;52.436;13.346;2022-11-20T03:22:13;4.00;90.40
15844;DHT22;50807;52.436;13.346;2022-11-20T03:22:44;4.00;90.40
15844;DHT22;50807;52.436;13.346;2022-11-20T03:23:15;4.00;90.40
15844;DHT22;50807;52.436;13.346;2022-11-20T03:23:46;4.00;90.40
15844;DHT22;50807;52.436;13.346;2022-11-20T03:24:19;4.10;90.40
15844;DHT22;50807;52.436;13.346;2022-11-20T03:24:50;4.00;90.40
15844;DHT22;50807;52.436;13.346;2022-11-20T03:25:22;4.00;90.40
15844;DHT22;50807;52.436;13.346;2022-11-20T03:25:53;4.00;90.40
15844;DHT22;50807;52.436;13.346;2022-11-20T03:26:26;4.00;90.40
15844;DHT22;50807;52.436;13.346;2022-11-20T03:26:58;4.00;90.40
15844;DHT22;50807;52.436;13.346;2022-11-20T03:27:32;4.00;90.40